Time;durP1;ratioP1;P1;durP2;ratioP2;P2;SDS_P1;SDS_P2;PMS_P1;PMS_P2;Temp;Humidity;BMP_temperature;BMP_pressure;BME280_temperature;BME280_humidity;BME280_pressure;Samples;Min_cycle;Max_cycle;Signal;HPM_P1;HPM_P2
2022/03/26 00:01:14;;;;;;;;;73.00;56.67;;;;;13.03;31.29;100397.75;5108787;28;9724;-75
2022/03/26 00:03:45;;;;;;;;;70.33;54.00;;;;;12.96;31.54;100386.34;5108190;28;9316;-74
2022/03/26 00:06:13;;;;;;;;;75.25;59.25;;;;;12.84;32.32;100389.81;5104435;28;9323;-75
2022/03/26 00:08:42;;;;;;;;;68.67;56.00;;;;;12.76;31.81;100388.03;5088458;28;10442;-74
2022/03/26 00:11:10;;;;;;;;;66.67;53.00;;;;;12.61;32.11;100381.88;5102728;28;10169;-74
2022/03/26 00:13:39;;;;;;;;;71.00;54.00;;;;;12.50;32.17;100383.56;5108190;28;10136;-75
2022/03/26 00:16:08;;;;;;;;;74.67;57.33;;;;;12.50;32.37;100383.56;5108787;28;9939;-76
2022/03/26 00:18:38;;;;;;;;;73.00;55.67;;;;;12.42;32.64;100387.84;5071622;28;9516;-78
2022/03/26 00:21:08;;;;;;;;;62.33;51.33;;;;;12.39;32.88;100388.72;5096834;28;9517;-77
2022/03/26 00:23:36;;;;;;;;;73.50;57.75;;;;;12.35;32.83;100389.59;5087920;28;9526;-74
2022/03/26 00:26:05;;;;;;;;;69.25;55.00;;;;;12.40;33.15;100385.25;5088004;28;10221;-74
2022/03/26 00:28:36;;;;;;;;;72.67;54.67;;;;;12.29;33.00;100384.31;5087917;28;10399;-75
2022/03/26 00:31:04;;;;;;;;;67.33;54.33;;;;;12.31;33.07;100393.06;5088243;28;9351;-76
2022/03/26 00:33:33;;;;;;;;;64.75;51.75;;;;;12.27;32.25;100386.06;5088238;28;9164;-76
2022/03/26 00:36:02;;;;;;;;;64.67;51.33;;;;;12.21;32.89;100386.00;5088055;28;8951;-75
2022/03/26 00:38:32;;;;;;;;;61.25;50.00;;;;;12.13;32.97;100393.78;5036286;28;9041;-76
2022/03/26 00:41:00;;;;;;;;;55.25;42.50;;;;;12.22;32.92;100391.25;5070906;28;8841;-75
2022/03/26 00:43:29;;;;;;;;;61.67;50.33;;;;;12.22;33.26;100390.38;5049343;28;8981;-76
2022/03/26 00:45:58;;;;;;;;;63.67;50.00;;;;;12.24;32.80;100393.88;5108659;28;9813;-74
2022/03/26 00:48:27;;;;;;;;;65.33;52.67;;;;;12.15;33.79;100392.06;5109592;28;9057;-74
2022/03/26 00:50:55;;;;;;;;;59.75;49.00;;;;;12.15;33.22;100396.41;5109765;28;9135;-74
2022/03/26 00:53:24;;;;;;;;;57.00;48.00;;;;;12.21;32.78;100396.44;5098983;28;8865;-75
2022/03/26 00:55:54;;;;;;;;;65.00;51.50;;;;;12.29;32.60;100395.66;5068156;28;8845;-74
2022/03/26 00:58:23;;;;;;;;;64.75;52.00;;;;;12.38;32.24;100397.47;5100399;28;8963;-74
2022/03/26 01:00:52;;;;;;;;;62.00;51.00;;;;;12.45;32.91;100399.22;5054590;28;8889;-73
2022/03/26 01:03:21;;;;;;;;;61.00;49.33;;;;;12.51;32.71;100394.91;5107665;28;9038;-73
2022/03/26 01:05:50;;;;;;;;;64.67;52.00;;;;;12.55;32.24;100389.69;5101821;28;9148;-77
2022/03/26 01:08:18;;;;;;;;;63.25;51.50;;;;;12.58;32.14;100391.44;5104595;28;9212;-76
2022/03/26 01:10:47;;;;;;;;;61.00;49.67;;;;;12.60;32.09;100387.09;5085123;28;8868;-74
2022/03/26 01:13:17;;;;;;;;;66.00;51.00;;;;;12.61;32.38;100394.09;5084802;28;9022;-75
2022/03/26 01:15:46;;;;;;;;;76.75;61.75;;;;;12.62;33.57;100388.84;5089481;28;8940;-74
2022/03/26 01:18:15;;;;;;;;;67.33;53.33;;;;;12.55;32.62;100388.81;5091341;28;9887;-75
2022/03/26 01:20:44;;;;;;;;;60.25;49.25;;;;;12.56;32.48;100388.81;5075199;28;9324;-78
2022/03/26 01:23:12;;;;;;;;;67.00;53.33;;;;;12.56;33.07;100394.06;5102530;28;8888;-75
2022/03/26 01:25:41;;;;;;;;;69.67;52.33;;;;;12.55;32.72;100394.94;5110385;28;9183;-76
2022/03/26 01:28:10;;;;;;;;;58.00;49.25;;;;;12.52;32.36;100391.44;5107948;28;8937;-75
2022/03/26 01:30:40;;;;;;;;;60.75;49.00;;;;;12.53;32.31;100387.94;5088452;28;8902;-76
2022/03/26 01:33:09;;;;;;;;;67.33;53.67;;;;;12.52;32.75;100394.03;5090927;28;8860;-75
2022/03/26 01:35:38;;;;;;;;;62.00;51.00;;;;;12.52;32.44;100391.44;5090983;28;9140;-76
2022/03/26 01:38:07;;;;;;;;;58.33;48.33;;;;;12.52;32.60;100401.88;5090710;28;8856;-75
2022/03/26 01:40:36;;;;;;;;;60.25;48.75;;;;;12.50;32.61;100396.66;5090875;28;9015;-75
2022/03/26 01:43:06;;;;;;;;;51.67;38.33;;;;;12.49;32.53;100397.50;5091193;28;8864;-75
2022/03/26 01:45:35;;;;;;;;;63.00;49.33;;;;;12.50;32.51;100399.25;5090925;28;9099;-77
2022/03/26 01:48:05;;;;;;;;;67.00;54.67;;;;;12.49;33.25;100394.88;5088219;28;9025;-75
2022/03/26 01:50:34;;;;;;;;;65.75;51.50;;;;;12.47;32.91;100394.00;5091193;28;9328;-74
2022/03/26 01:53:03;;;;;;;;;70.67;56.33;;;;;12.46;33.12;100389.66;5090827;28;8945;-74
2022/03/26 01:55:32;;;;;;;;;63.67;50.33;;;;;12.43;33.88;100398.34;5090733;28;9339;-74
2022/03/26 01:58:01;;;;;;;;;58.25;49.25;;;;;12.40;33.08;100398.34;5072693;28;9102;-74
2022/03/26 02:00:30;;;;;;;;;63.67;51.67;;;;;12.39;33.78;100400.94;5099679;28;8865;-74
2022/03/26 02:02:59;;;;;;;;;64.00;52.00;;;;;12.36;33.32;100390.44;5037884;28;9165;-74
2022/03/26 02:05:29;;;;;;;;;37.75;29.75;;;;;12.33;32.75;100399.16;5072601;28;9183;-75
2022/03/26 02:07:58;;;;;;;;;59.50;47.00;;;;;12.31;32.86;100402.66;5090578;28;8992;-76
2022/03/26 02:10:27;;;;;;;;;66.00;50.50;;;;;12.29;33.21;100405.25;5090658;28;8929;-74
2022/03/26 02:12:56;;;;;;;;;59.50;48.75;;;;;12.27;32.75;100399.13;5090646;28;8929;-75
2022/03/26 02:15:25;;;;;;;;;55.50;45.75;;;;;12.26;32.74;100402.59;5090828;28;8960;-76
2022/03/26 02:17:55;;;;;;;;;61.75;49.25;;;;;12.23;32.59;100403.47;5090550;28;8936;-74
2022/03/26 02:20:26;;;;;;;;;57.25;45.00;;;;;12.21;33.19;100401.69;5104286;28;10138;-73
2022/03/26 02:22:55;;;;;;;;;58.25;48.50;;;;;12.20;33.47;100402.56;5074859;28;9033;-74
2022/03/26 02:25:23;;;;;;;;;59.75;49.00;;;;;12.17;33.11;100402.53;5110892;28;9596;-74
2022/03/26 02:27:52;;;;;;;;;62.00;49.25;;;;;12.17;33.10;100403.41;5110046;28;9595;-74
2022/03/26 02:30:21;;;;;;;;;57.75;46.25;;;;;12.13;33.51;100398.16;5075070;28;8847;-74
2022/03/26 02:32:50;;;;;;;;;57.00;46.25;;;;;12.14;32.73;100402.53;5111452;28;8866;-76
2022/03/26 02:35:18;;;;;;;;;56.75;45.75;;;;;12.13;32.57;100399.03;5093459;28;8854;-75
2022/03/26 02:37:48;;;;;;;;;59.50;47.75;;;;;12.15;32.71;100405.13;5087827;28;8856;-75
2022/03/26 02:40:18;;;;;;;;;60.00;48.50;;;;;12.16;33.49;100413.88;5089170;28;8859;-74
2022/03/26 02:42:47;;;;;;;;;60.75;47.50;;;;;12.16;33.48;100408.66;5090258;28;8853;-74
2022/03/26 02:45:15;;;;;;;;;58.50;48.50;;;;;12.15;33.20;100410.38;5089958;28;8856;-74
2022/03/26 02:47:44;;;;;;;;;57.75;47.75;;;;;12.14;33.06;100413.84;5090061;28;9686;-75
2022/03/26 02:50:13;;;;;;;;;46.75;39.50;;;;;12.10;33.09;100419.94;5090006;28;9626;-74
2022/03/26 02:52:41;;;;;;;;;55.50;43.75;;;;;12.08;32.77;100416.44;5037703;28;8873;-74
2022/03/26 02:55:11;;;;;;;;;57.00;48.00;;;;;12.06;32.78;100413.81;5088020;28;8877;-75
2022/03/26 02:57:40;;;;;;;;;62.00;48.25;;;;;12.04;33.47;100409.41;5100001;28;8855;-76
2022/03/26 03:00:10;;;;;;;;;59.25;47.00;;;;;12.00;33.51;100408.53;5089841;28;8839;-75
2022/03/26 03:02:38;;;;;;;;;58.75;48.25;;;;;12.00;33.51;100408.53;5090136;28;8940;-77
2022/03/26 03:05:08;;;;;;;;;61.25;46.00;;;;;11.94;33.62;100411.09;5089949;28;8848;-74
2022/03/26 03:07:37;;;;;;;;;55.25;45.50;;;;;11.93;33.47;100409.34;5089739;28;8844;-75
2022/03/26 03:10:06;;;;;;;;;56.50;45.75;;;;;11.94;33.45;100408.47;5089168;28;9803;-75
2022/03/26 03:12:36;;;;;;;;;54.75;45.75;;;;;11.96;33.65;100413.72;5089765;28;8845;-76
2022/03/26 03:15:05;;;;;;;;;54.25;44.50;;;;;11.96;33.63;100414.59;5071186;28;8852;-76
2022/03/26 03:17:37;;;;;;;;;57.75;46.75;;;;;11.95;33.08;100420.69;5089504;28;8829;-74
2022/03/26 03:20:06;;;;;;;;;60.25;46.75;;;;;11.95;33.38;100422.44;5089203;28;9651;-76
2022/03/26 03:22:35;;;;;;;;;56.50;43.00;;;;;11.95;33.63;100423.31;5109674;28;8866;-75
2022/03/26 03:25:04;;;;;;;;;58.25;45.50;;;;;11.94;33.44;100429.38;5090765;28;9572;-77
2022/03/26 03:27:36;;;;;;;;;53.50;45.50;;;;;11.93;33.22;100421.53;5109651;28;8822;-75
2022/03/26 03:30:06;;;;;;;;;58.25;47.25;;;;;11.93;33.31;100421.53;5109521;28;8977;-74
2022/03/26 03:32:34;;;;;;;;;57.75;46.00;;;;;11.90;33.20;100420.63;5073980;28;8881;-75
2022/03/26 03:35:05;;;;;;;;;56.25;45.50;;;;;11.90;33.64;100427.59;5089134;28;8829;-76
2022/03/26 03:37:37;;;;;;;;;55.50;43.25;;;;;11.89;33.58;100425.84;5071031;28;9683;-77
2022/03/26 03:40:07;;;;;;;;;51.75;42.00;;;;;11.81;33.75;100428.38;5088566;28;8845;-73
2022/03/26 03:42:37;;;;;;;;;53.00;41.25;;;;;11.78;33.72;100433.59;5102110;28;8850;-73
2022/03/26 03:45:09;;;;;;;;;55.75;47.25;;;;;11.77;33.89;100430.94;5109107;28;8894;-75
2022/03/26 03:47:38;;;;;;;;;55.00;43.75;;;;;11.76;33.91;100430.09;5074500;28;8876;-75
2022/03/26 03:50:08;;;;;;;;;56.25;45.75;;;;;11.70;33.79;100430.00;5100885;28;8860;-75
2022/03/26 03:52:36;;;;;;;;;45.50;40.00;;;;;11.66;33.57;100431.75;5053526;28;8876;-74
2022/03/26 03:55:06;;;;;;;;;56.00;45.00;;;;;11.67;33.72;100427.38;5053802;28;8845;-74
2022/03/26 03:57:40;;;;;;;;;56.25;46.25;;;;;11.65;33.89;100421.28;5044769;28;8900;-75
2022/03/26 04:00:10;;;;;;;;;58.25;44.75;;;;;11.66;33.75;100423.91;5108996;28;8851;-75
2022/03/26 04:02:42;;;;;;;;;60.00;46.50;;;;;11.67;33.90;100425.63;5058114;28;8857;-74
2022/03/26 04:05:11;;;;;;;;;59.50;46.25;;;;;11.71;34.02;100426.53;5108820;28;8869;-76
2022/03/26 04:07:44;;;;;;;;;56.75;46.25;;;;;11.71;34.04;100424.78;5109227;28;8838;-75
2022/03/26 04:10:14;;;;;;;;;54.50;46.00;;;;;11.73;33.96;100426.56;5108870;28;8842;-73
2022/03/26 04:12:45;;;;;;;;;59.00;47.50;;;;;11.74;34.39;100423.97;5108883;28;8900;-75
2022/03/26 04:15:15;;;;;;;;;54.25;46.00;;;;;11.72;34.07;100423.09;5097334;28;8845;-76
2022/03/26 04:17:44;;;;;;;;;58.75;48.25;;;;;11.72;34.14;100428.31;5088653;28;8951;-75
2022/03/26 04:20:12;;;;;;;;;60.75;46.00;;;;;11.71;34.09;100424.78;5036895;28;8836;-75
2022/03/26 04:22:41;;;;;;;;;70.00;55.00;;;;;11.70;34.32;100424.78;5088400;28;8955;-76
2022/03/26 04:25:11;;;;;;;;;64.00;51.50;;;;;11.69;34.57;100420.44;5089040;28;9485;-76
2022/03/26 04:27:44;;;;;;;;;62.00;48.50;;;;;11.71;34.08;100434.38;5055553;28;9707;-75
2022/03/26 04:30:14;;;;;;;;;59.75;50.00;;;;;11.69;34.38;100431.75;5070657;28;8845;-75
2022/03/26 04:32:42;;;;;;;;;60.25;49.75;;;;;11.69;34.39;100425.66;5048983;28;8842;-74
2022/03/26 04:35:11;;;;;;;;;62.00;49.00;;;;;11.69;34.39;100429.13;5099536;28;8956;-75
2022/03/26 04:37:41;;;;;;;;;56.50;46.75;;;;;11.67;34.04;100436.09;5088199;28;8864;-75
2022/03/26 04:40:11;;;;;;;;;55.50;47.75;;;;;11.66;34.67;100430.84;5088057;28;8965;-74
2022/03/26 04:42:41;;;;;;;;;65.67;54.67;;;;;11.65;34.18;100429.97;5087914;28;8841;-74
2022/03/26 04:45:12;;;;;;;;;82.50;68.00;;;;;11.66;34.44;100426.50;5088044;28;9116;-74
2022/03/26 04:47:40;;;;;;;;;71.00;57.00;;;;;11.66;34.51;100430.84;5087897;28;10214;-74
2022/03/26 04:50:11;;;;;;;;;57.75;47.25;;;;;11.66;35.06;100436.97;5088668;28;9243;-73
2022/03/26 04:52:39;;;;;;;;;59.75;48.00;;;;;11.67;35.20;100435.22;5092069;28;8855;-73
2022/03/26 04:55:10;;;;;;;;;59.75;49.00;;;;;11.67;34.92;100436.09;5092264;28;9609;-73
2022/03/26 04:57:41;;;;;;;;;62.50;47.00;;;;;11.70;34.71;100440.44;5091965;28;8891;-75
2022/03/26 05:00:14;;;;;;;;;68.00;53.00;;;;;11.73;34.92;100439.63;5074090;28;8857;-76
2022/03/26 05:02:43;;;;;;;;;59.33;49.00;;;;;11.76;35.12;100445.75;5092932;28;8991;-76
2022/03/26 05:05:14;;;;;;;;;67.33;54.33;;;;;11.76;34.84;100435.31;5109562;28;9024;-73
2022/03/26 05:07:51;;;;;;;;;65.67;52.67;;;;;11.78;35.06;100446.66;5059971;28;9284;-76
2022/03/26 05:10:22;;;;;;;;;67.67;55.67;;;;;11.80;34.89;100447.53;5112577;28;9040;-73
2022/03/26 05:12:52;;;;;;;;;72.00;56.67;;;;;11.82;35.14;100450.16;5065239;28;9109;-74
2022/03/26 05:15:23;;;;;;;;;78.00;60.33;;;;;11.85;35.72;100447.56;5112140;28;9285;-76
2022/03/26 05:17:52;;;;;;;;;95.50;81.75;;;;;11.86;35.25;100449.31;5111998;28;9400;-75
2022/03/26 05:20:21;;;;;;;;;86.75;72.50;;;;;11.86;36.17;100447.59;5110896;28;11946;-77
2022/03/26 05:22:51;;;;;;;;;94.25;81.75;;;;;11.89;35.95;100457.22;5112039;28;10546;-75
2022/03/26 05:25:20;;;;;;;;;86.50;68.50;;;;;11.95;35.81;100457.28;5111998;28;11365;-74
2022/03/26 05:27:51;;;;;;;;;78.25;61.25;;;;;11.97;36.00;100455.56;5110004;28;10465;-76
2022/03/26 05:30:22;;;;;;;;;105.75;92.75;;;;;12.02;35.55;100460.81;5091178;28;10098;-76
2022/03/26 05:32:51;;;;;;;;;79.75;62.00;;;;;12.08;35.71;100463.50;5091549;28;11674;-75
2022/03/26 05:35:19;;;;;;;;;81.00;62.00;;;;;12.12;35.16;100470.50;5056159;28;9902;-76
2022/03/26 05:37:51;;;;;;;;;78.75;61.25;;;;;12.17;35.53;100466.16;5074532;28;9733;-74
2022/03/26 05:40:22;;;;;;;;;72.75;55.75;;;;;12.20;35.83;100470.56;5111569;28;9996;-74
2022/03/26 05:42:52;;;;;;;;;74.25;59.50;;;;;12.25;35.45;100474.09;5110188;28;10857;-75
2022/03/26 05:45:22;;;;;;;;;75.50;61.50;;;;;12.32;35.07;100470.63;5110879;28;9691;-76
2022/03/26 05:47:51;;;;;;;;;74.25;59.75;;;;;12.40;35.33;100476.81;5111990;28;10196;-73
2022/03/26 05:50:20;;;;;;;;;71.00;55.50;;;;;12.47;35.07;100477.72;5077793;28;9682;-74
2022/03/26 05:52:49;;;;;;;;;72.75;56.75;;;;;12.55;35.17;100480.38;5091487;28;9616;-74
2022/03/26 05:55:17;;;;;;;;;73.00;57.33;;;;;12.61;35.00;100477.81;5100730;28;9659;-74
2022/03/26 05:57:46;;;;;;;;;61.00;50.50;;;;;12.71;34.74;100484.84;5111750;28;9396;-76
2022/03/26 06:00:16;;;;;;;;;72.00;57.33;;;;;12.72;33.78;100484.00;5059221;28;9475;-76
2022/03/26 06:02:48;;;;;;;;;71.00;55.67;;;;;12.69;33.67;100489.19;5054339;28;9611;-75
2022/03/26 06:05:17;;;;;;;;;71.67;56.00;;;;;12.77;34.11;100486.63;5076534;28;9170;-73
2022/03/26 06:07:45;;;;;;;;;74.50;57.25;;;;;12.84;34.08;100489.28;5109278;28;9333;-72
2022/03/26 06:10:14;;;;;;;;;68.00;53.67;;;;;12.95;33.82;100494.59;5109056;28;9600;-73
2022/03/26 06:12:45;;;;;;;;;70.33;55.00;;;;;12.96;33.58;100493.69;5108519;28;9240;-72
2022/03/26 06:15:13;;;;;;;;;72.33;55.00;;;;;13.09;33.52;100486.78;5072283;28;9266;-72
2022/03/26 06:18:04;;;;;;;;;71.00;56.00;;;;;13.23;33.19;100492.06;5088248;28;10015;-72
2022/03/26 06:20:33;;;;;;;;;67.50;53.25;;;;;13.38;33.12;100496.53;5088125;28;9430;-72
2022/03/26 06:23:02;;;;;;;;;69.00;54.67;;;;;13.47;32.73;100496.56;5106557;28;9566;-72
2022/03/26 06:25:32;;;;;;;;;65.00;52.33;;;;;13.57;32.32;100489.59;5109673;28;9416;-72
2022/03/26 06:28:01;;;;;;;;;72.00;56.00;;;;;13.62;31.88;100491.34;5105364;28;9274;-71
2022/03/26 06:30:30;;;;;;;;;70.33;55.33;;;;;13.71;32.55;100492.25;5108233;28;9497;-71
2022/03/26 06:32:59;;;;;;;;;73.25;56.75;;;;;13.69;32.14;100494.88;5100202;28;9245;-72
2022/03/26 06:35:30;;;;;;;;;73.50;56.50;;;;;13.77;32.53;100500.13;5092740;28;9602;-73
2022/03/26 06:37:58;;;;;;;;;70.33;55.33;;;;;13.84;32.81;100496.66;5072832;28;9689;-74
2022/03/26 06:40:27;;;;;;;;;70.67;54.33;;;;;13.74;31.88;100510.59;5109175;28;9398;-74
2022/03/26 06:42:56;;;;;;;;;66.00;54.67;;;;;13.57;31.74;100508.84;5054879;28;9569;-71
2022/03/26 06:45:25;;;;;;;;;67.00;53.67;;;;;13.76;31.43;100511.47;5088858;28;9249;-73
2022/03/26 06:47:53;;;;;;;;;65.67;54.00;;;;;13.91;32.41;100518.50;5040084;28;9262;-71
2022/03/26 06:50:22;;;;;;;;;63.33;52.33;;;;;14.04;32.01;100515.91;5095149;28;9221;-73
2022/03/26 06:52:52;;;;;;;;;72.75;59.50;;;;;14.21;31.83;100520.28;5098096;28;9288;-72
2022/03/26 06:55:21;;;;;;;;;65.67;52.33;;;;;14.34;31.26;100511.53;5087469;28;9537;-75
2022/03/26 06:57:50;;;;;;;;;64.67;53.00;;;;;14.28;31.50;100522.03;5107507;28;9235;-70
2022/03/26 07:00:19;;;;;;;;;69.00;52.67;;;;;14.33;31.10;100520.28;5085648;28;9181;-72
2022/03/26 07:02:48;;;;;;;;;69.67;54.00;;;;;14.37;31.57;100518.53;5108522;28;9327;-72
2022/03/26 07:05:16;;;;;;;;;67.67;52.00;;;;;14.36;31.01;100528.13;5098960;28;9264;-73
2022/03/26 07:07:45;;;;;;;;;60.67;50.33;;;;;14.55;31.25;100533.38;5104671;28;9499;-74
2022/03/26 07:10:15;;;;;;;;;66.33;53.67;;;;;14.75;31.58;100531.66;5099334;28;9246;-73
2022/03/26 07:12:44;;;;;;;;;68.67;55.00;;;;;14.82;31.27;100537.78;5107705;28;9074;-75
2022/03/26 07:15:13;;;;;;;;;70.67;55.00;;;;;14.65;30.98;100536.91;5106184;28;10062;-73
2022/03/26 07:17:43;;;;;;;;;63.33;50.00;;;;;13.73;32.29;100542.94;5105643;28;9338;-70
2022/03/26 07:20:14;;;;;;;;;66.67;52.33;;;;;13.90;32.81;100554.34;5053784;28;9036;-72
2022/03/26 07:22:44;;;;;;;;;61.00;49.33;;;;;14.21;31.70;100538.63;5107179;28;9190;-71
2022/03/26 07:25:13;;;;;;;;;67.33;54.00;;;;;14.07;32.06;100549.13;5089838;28;9081;-72
2022/03/26 07:27:43;;;;;;;;;63.33;46.67;;;;;14.33;32.52;100541.28;5051204;28;9340;-73
2022/03/26 07:30:12;;;;;;;;;59.00;48.50;;;;;14.67;31.58;100546.53;5087086;28;9197;-72
2022/03/26 07:32:41;;;;;;;;;65.67;52.00;;;;;14.41;32.06;100547.38;5095675;28;8834;-74
2022/03/26 07:35:10;;;;;;;;;65.67;52.00;;;;;14.56;31.89;100554.38;5103860;28;9115;-72
2022/03/26 07:37:38;;;;;;;;;55.33;45.00;;;;;14.77;31.41;100556.16;5052801;28;9065;-72
2022/03/26 07:40:08;;;;;;;;;62.00;50.00;;;;;14.21;32.34;100557.00;5107914;28;9964;-73
2022/03/26 07:42:37;;;;;;;;;67.67;52.00;;;;;13.58;33.75;100560.34;5051903;28;9823;-76
2022/03/26 07:45:08;;;;;;;;;62.67;51.00;;;;;13.79;34.49;100563.94;5045419;28;9219;-73
2022/03/26 07:47:38;;;;;;;;;61.67;50.00;;;;;14.04;33.31;100562.22;5097958;28;8945;-74
2022/03/26 07:50:08;;;;;;;;;53.25;43.75;;;;;14.33;32.55;100566.63;5105225;28;8949;-76
2022/03/26 07:52:38;;;;;;;;;59.25;49.25;;;;;14.70;32.23;100566.66;5023600;28;8950;-76
2022/03/26 07:55:08;;;;;;;;;66.33;53.00;;;;;14.42;33.08;100567.53;5091188;28;8838;-75
2022/03/26 07:57:37;;;;;;;;;64.33;51.67;;;;;14.26;33.19;100563.13;5100059;28;9333;-74
2022/03/26 08:00:09;;;;;;;;;63.50;47.50;;;;;14.47;32.02;100562.25;5068217;28;9030;-75
2022/03/26 08:02:40;;;;;;;;;63.33;49.33;;;;;14.86;31.49;100571.03;5099303;28;8869;-73
2022/03/26 08:05:09;;;;;;;;;54.50;45.50;;;;;15.24;31.55;100566.56;5103225;28;9810;-73
2022/03/26 08:07:38;;;;;;;;;59.25;48.50;;;;;15.62;31.01;100568.16;5063576;28;8869;-73
2022/03/26 08:10:08;;;;;;;;;55.50;47.00;;;;;15.95;30.29;100565.38;5090759;28;8867;-73
2022/03/26 08:12:36;;;;;;;;;60.33;49.67;;;;;16.21;29.97;100569.59;5056736;28;8858;-74
2022/03/26 08:15:06;;;;;;;;;55.50;45.25;;;;;15.92;29.80;100572.41;5102527;28;9010;-73
2022/03/26 08:17:36;;;;;;;;;57.50;47.25;;;;;16.25;29.87;100568.66;5090079;28;8848;-72
2022/03/26 08:20:07;;;;;;;;;50.75;41.75;;;;;16.51;29.11;100579.00;5107975;28;8846;-74
2022/03/26 08:22:36;;;;;;;;;54.75;44.00;;;;;16.47;28.93;100574.66;5088275;28;8868;-73
2022/03/26 08:25:05;;;;;;;;;51.25;40.00;;;;;16.55;28.45;100579.84;5087323;28;9387;-74
2022/03/26 08:27:34;;;;;;;;;52.50;43.00;;;;;16.25;28.86;100575.69;5095991;28;8845;-74
2022/03/26 08:30:03;;;;;;;;;54.50;44.25;;;;;16.23;29.31;100578.34;5087319;28;8871;-73
2022/03/26 08:32:32;;;;;;;;;51.00;41.00;;;;;16.55;29.09;100580.72;5094524;28;8862;-74
2022/03/26 08:35:02;;;;;;;;;51.25;42.25;;;;;16.24;29.38;100582.72;5095392;28;8860;-72
2022/03/26 08:37:34;;;;;;;;;49.75;42.00;;;;;15.72;29.99;100583.88;5051816;28;9734;-74
2022/03/26 08:40:04;;;;;;;;;55.75;46.00;;;;;16.08;29.80;100575.81;5052796;28;9614;-73
2022/03/26 08:42:33;;;;;;;;;58.50;46.75;;;;;15.60;30.69;100583.94;5068192;28;9014;-74
2022/03/26 08:45:01;;;;;;;;;53.75;45.00;;;;;15.56;30.75;100584.84;5047631;28;8862;-73
2022/03/26 08:47:30;;;;;;;;;47.00;38.00;;;;;15.57;30.70;100583.94;5055712;28;8970;-73
2022/03/26 08:49:59;;;;;;;;;48.50;41.25;;;;;15.19;30.94;100590.22;5107162;28;8847;-74
2022/03/26 08:52:29;;;;;;;;;55.50;44.00;;;;;15.04;31.15;100585.84;5092104;28;8876;-73
2022/03/26 08:54:57;;;;;;;;;49.00;38.75;;;;;14.83;31.67;100586.78;5055204;28;8888;-74
2022/03/26 08:57:26;;;;;;;;;48.50;41.25;;;;;15.13;31.92;100580.59;5101080;28;8880;-74
2022/03/26 08:59:55;;;;;;;;;54.25;45.25;;;;;15.22;31.36;100582.31;5097658;28;8866;-75
2022/03/26 09:02:23;;;;;;;;;51.75;43.00;;;;;15.34;31.37;100584.91;5103825;28;8854;-74
2022/03/26 09:04:52;;;;;;;;;50.50;42.25;;;;;15.42;30.87;100582.25;5107394;28;8865;-73
2022/03/26 09:07:21;;;;;;;;;56.50;44.00;;;;;15.65;30.70;100578.66;5105700;28;9649;-74
2022/03/26 09:09:51;;;;;;;;;46.75;36.25;;;;;15.96;29.74;100571.50;5106665;28;8854;-73
2022/03/26 09:12:20;;;;;;;;;50.75;39.75;;;;;15.78;29.88;100569.84;5051940;28;9642;-74
2022/03/26 09:14:48;;;;;;;;;51.25;42.25;;;;;15.30;30.85;100587.56;5089396;28;8988;-73
2022/03/26 09:17:17;;;;;;;;;51.25;37.50;;;;;15.36;30.31;100582.28;5071522;28;8858;-74
2022/03/26 09:19:46;;;;;;;;;53.75;42.25;;;;;15.30;30.69;100577.03;5059034;28;8862;-74
2022/03/26 09:22:14;;;;;;;;;53.50;43.50;;;;;15.42;30.78;100576.97;5100229;28;8974;-75
2022/03/26 09:24:43;;;;;;;;;49.75;40.50;;;;;15.12;30.69;100586.75;5046095;28;8829;-75
2022/03/26 09:27:14;;;;;;;;;50.25;40.50;;;;;14.95;31.69;100581.53;5094015;28;8870;-72
2022/03/26 09:29:43;;;;;;;;;40.75;37.25;;;;;14.91;31.41;100578.88;5093282;28;9011;-73
2022/03/26 09:32:12;;;;;;;;;46.50;37.25;;;;;15.05;30.96;100579.75;5086592;28;8958;-75
2022/03/26 09:34:41;;;;;;;;;48.75;40.50;;;;;15.43;30.75;100575.25;5087089;28;8875;-75
2022/03/26 09:37:11;;;;;;;;;43.75;36.50;;;;;14.98;30.88;100572.75;5102515;28;9599;-74
2022/03/26 09:39:41;;;;;;;;;47.25;39.75;;;;;14.98;31.11;100567.50;5092903;28;8938;-75
2022/03/26 09:42:11;;;;;;;;;51.00;42.50;;;;;14.97;31.74;100578.88;5095982;28;8949;-73
2022/03/26 09:44:41;;;;;;;;;49.75;40.00;;;;;15.15;31.49;100568.31;5097162;28;8867;-75
2022/03/26 09:47:11;;;;;;;;;53.25;44.25;;;;;15.62;31.22;100576.06;5109879;28;8846;-74
2022/03/26 09:49:40;;;;;;;;;58.25;47.25;;;;;15.68;31.17;100566.38;5095064;28;8844;-74
2022/03/26 09:52:08;;;;;;;;;53.75;44.00;;;;;15.53;30.97;100566.44;5104238;28;8961;-74
2022/03/26 09:54:37;;;;;;;;;55.25;44.75;;;;;15.77;30.70;100566.34;5090299;28;8947;-75
2022/03/26 09:57:07;;;;;;;;;58.25;46.00;;;;;15.48;31.27;100570.84;5090712;28;8858;-74
2022/03/26 09:59:37;;;;;;;;;53.00;44.00;;;;;15.67;31.28;100569.00;5109341;28;8873;-75
2022/03/26 10:02:07;;;;;;;;;55.25;43.75;;;;;15.63;31.11;100568.13;5055677;28;8901;-74
2022/03/26 10:04:40;;;;;;;;;53.00;43.25;;;;;15.76;31.19;100563.72;5089868;28;8866;-74
2022/03/26 10:07:09;;;;;;;;;52.50;45.00;;;;;16.00;31.11;100564.47;5109463;28;8826;-75
2022/03/26 10:09:40;;;;;;;;;63.50;47.50;;;;;16.47;30.59;100568.53;5107720;28;9708;-73
2022/03/26 10:12:11;;;;;;;;;58.75;48.00;;;;;16.86;29.95;100555.88;5109866;28;8880;-73
2022/03/26 10:14:45;;;;;;;;;61.25;47.25;;;;;17.19;29.56;100559.06;5093259;28;8871;-75
2022/03/26 10:17:24;;;;;;;;;49.75;39.75;;;;;17.36;27.91;100559.75;5089604;28;8845;-74
2022/03/26 10:19:55;;;;;;;;;49.50;42.25;;;;;16.91;28.59;100549.69;5090426;28;8887;-74
2022/03/26 10:22:29;;;;;;;;;51.25;42.25;;;;;16.93;28.34;100554.94;5053073;28;9723;-73
2022/03/26 10:25:00;;;;;;;;;55.00;42.75;;;;;17.02;28.97;100549.56;5109999;28;8838;-75
2022/03/26 10:27:32;;;;;;;;;52.25;43.25;;;;;16.79;29.29;100539.25;5109530;28;8867;-73
2022/03/26 10:30:02;;;;;;;;;59.25;46.50;;;;;16.57;29.97;100543.84;5098443;28;8864;-74
2022/03/26 10:32:41;;;;;;;;;52.75;43.50;;;;;16.52;29.90;100543.91;5096317;28;8908;-74
2022/03/26 10:35:12;;;;;;;;;52.75;44.00;;;;;16.71;29.50;100538.44;5095345;28;8853;-74
2022/03/26 10:37:51;;;;;;;;;51.50;42.50;;;;;16.83;29.48;100534.88;5088907;28;8868;-75
2022/03/26 10:40:23;;;;;;;;;52.50;42.25;;;;;17.21;28.65;100529.16;5089605;28;8849;-74
2022/03/26 10:42:56;;;;;;;;;51.75;43.25;;;;;17.36;28.97;100527.25;5055615;28;8878;-74
2022/03/26 10:45:27;;;;;;;;;51.25;42.00;;;;;17.24;28.49;100525.59;5088792;28;8890;-74
2022/03/26 10:47:58;;;;;;;;;47.75;38.00;;;;;17.65;28.22;100526.84;5088023;28;8857;-74
2022/03/26 10:50:34;;;;;;;;;41.00;36.00;;;;;18.04;26.90;100519.28;5093024;28;8893;-75
2022/03/26 10:53:08;;;;;;;;;46.75;34.50;;;;;18.39;27.11;100523.09;5096726;28;8833;-71
2022/03/26 10:55:39;;;;;;;;;34.00;31.25;;;;;18.59;25.90;100517.47;5103877;28;9015;-72
2022/03/26 10:58:09;;;;;;;;;41.75;36.75;;;;;18.55;25.63;100513.16;5077659;28;8864;-75
2022/03/26 11:00:39;;;;;;;;;42.00;36.00;;;;;18.41;26.21;100516.00;5046921;28;8838;-75
2022/03/26 11:03:09;;;;;;;;;43.00;35.50;;;;;18.78;26.74;100505.66;5109049;28;8907;-75
2022/03/26 11:05:40;;;;;;;;;36.75;32.75;;;;;19.05;25.36;100511.34;5109216;28;8996;-76
2022/03/26 11:08:12;;;;;;;;;39.50;33.25;;;;;19.00;25.16;100500.88;5109416;28;8957;-74
2022/03/26 11:10:42;;;;;;;;;37.75;34.25;;;;;19.36;25.14;100500.16;5095232;28;8849;-75
2022/03/26 11:13:13;;;;;;;;;41.00;34.75;;;;;19.66;25.07;100488.88;5089301;28;8859;-75
2022/03/26 11:15:46;;;;;;;;;32.75;29.75;;;;;18.78;24.54;100496.88;5089386;28;9602;-75
2022/03/26 11:18:33;;;;;;;;;27.25;24.25;;;;;18.11;24.88;100500.66;5088754;28;8895;-76
2022/03/26 11:21:50;;;;;;;;;29.75;28.25;;;;;18.53;24.72;100484.13;5089434;28;8963;-76
2022/03/26 11:24:41;;;;;;;;;32.75;31.50;;;;;18.55;24.67;100474.38;5089263;28;8857;-75
2022/03/26 11:27:36;;;;;;;;;34.00;32.00;;;;;18.57;24.35;100482.28;5054384;28;8841;-75
2022/03/26 11:30:13;;;;;;;;;36.50;33.00;;;;;18.83;23.97;100472.13;5088973;28;8983;-75